Aeroporto :
LOGIN :

Iscrizione | Disclaimer

   EN    FR    IT 

 










Sommario :    VFR   VFR Marginale   IFR   IFR Intensivo   IFR Molto Intensivo
Visibilità : 
Base nubi : 
>= 8 km
>= 3000ft
5 / 8 km
1000 / 3000 ft
1500m / 5 km
500 / 1000 ft
800 / 1500m
200 / 500 ft
< 800m
< 200 ft
Simboli :   Temporali  Nebbia  Neve Forte  Precipitazioni Forti  Vento > 20 kt
SIGMETs :   Varie  Temporali  Ghiacco  Turbolenza  Onda orograficha  Ceneri Vulcaniche






- Altitudine del aeroporto : 16 ft
- Codice IATA : EAS


LESO - San Sebastian Fuenterrabia

ULTIMO METAR :
  • 160730Z 19010G23KT 110V260 CAVOK 17/05 Q1002

METARs OBSOLETI :
  • 160700Z 18014KT 130V230 CAVOK 17/05 Q1002
  • 160630Z 17010G22KT 110V240 CAVOK 17/05 Q1002
  • 160600Z 20008G21KT 150V250 CAVOK 16/05 Q1002
  • 160530Z 25011KT 160V290 CAVOK 16/06 Q1002
  • 160500Z VRB09G19KT CAVOK 16/06 Q1002

TAF TAF LESO
Valido dal 16 a 06 ore il 17 a 06 ore UTC


160500Z 1606/1706 17009KT CAVOK TX17/1614Z TN11/1706Z
TEMPO 1606/1612 17015G30KT
PROB40
TEMPO 1606/1610 17020G35KT
TEMPO 1700/1702 28010KT



MetMap, La meteo Aeronautica in un colpo d'occhio ! - Copyright ORBIFLY Dicembre 2007 - Disclaimer

ORBIFLY MET'MAP TEAM :

Programmazione e sviluppo : Alexandra Zaïnal
Concezione : Baudouin d'Aumeries
Aiuto per la programmazione : Marc-Olivier Méhu
Supporto tecnico e logistico : Manuel Goepfert
Aiuto per la traduzione : Arnaldo La Scala

Contatto : metmap@orbifly.com




FONTI E CREDITI :

   NOAA